Time;durP1;ratioP1;P1;durP2;ratioP2;P2;SDS_P1;SDS_P2;PMS_P1;PMS_P2;Temp;Humidity;BMP_temperature;BMP_pressure;BME280_temperature;BME280_humidity;BME280_pressure;Samples;Min_cycle;Max_cycle;Signal;HPM_P1;HPM_P2
2023/05/26 00:01:04;;;;;;;37.67;4.75;;;;;;;10.23;100.00;102527.78;4953986;29;20402;-76
2023/05/26 00:03:29;;;;;;;26.73;3.75;;;;;;;10.21;100.00;102529.72;4954310;29;20039;-76
2023/05/26 00:05:55;;;;;;;20.35;4.07;;;;;;;10.14;100.00;102534.63;4937856;29;20399;-79
2023/05/26 00:08:22;;;;;;;20.80;3.55;;;;;;;10.09;100.00;102528.50;4922272;29;20122;-76
2023/05/26 00:10:48;;;;;;;28.55;3.30;;;;;;;10.07;100.00;102531.31;4953862;29;20043;-77
2023/05/26 00:13:13;;;;;;;21.48;5.10;;;;;;;10.03;100.00;102539.75;4935701;29;20042;-77
2023/05/26 00:15:40;;;;;;;25.98;3.70;;;;;;;9.87;100.00;102528.66;4953246;29;20497;-76
2023/05/26 00:18:06;;;;;;;28.30;3.83;;;;;;;10.05;100.00;102536.00;4953118;28;20045;-76
2023/05/26 00:20:32;;;;;;;30.17;4.03;;;;;;;9.92;100.00;102545.78;4949795;29;20043;-78
2023/05/26 00:22:57;;;;;;;19.92;3.70;;;;;;;9.84;100.00;102545.22;4953029;29;20039;-77
2023/05/26 00:25:23;;;;;;;27.05;4.28;;;;;;;9.79;100.00;102550.03;4941325;29;20039;-77
2023/05/26 00:27:49;;;;;;;24.10;4.20;;;;;;;9.81;100.00;102537.19;4948400;28;20047;-76
2023/05/26 00:30:14;;;;;;;20.67;3.08;;;;;;;9.80;100.00;102546.34;4953436;29;20039;-78
2023/05/26 00:32:40;;;;;;;26.55;4.22;;;;;;;9.64;100.00;102514.28;4952665;29;20046;-76
2023/05/26 00:35:06;;;;;;;23.52;4.47;;;;;;;9.74;100.00;102537.50;4920059;29;20035;-77
2023/05/26 00:37:32;;;;;;;24.60;4.28;;;;;;;9.69;100.00;102534.09;4965103;28;20067;-76
2023/05/26 00:39:58;;;;;;;23.02;3.97;;;;;;;9.73;100.00;102541.19;4935572;29;20557;-76
2023/05/26 00:42:24;;;;;;;24.73;4.32;;;;;;;9.70;100.00;102541.31;4951556;29;20127;-77
2023/05/26 00:44:52;;;;;;;26.48;3.92;;;;;;;9.68;100.00;102546.00;4966241;28;20031;-77
2023/05/26 00:47:18;;;;;;;28.65;4.35;;;;;;;9.65;100.00;102546.13;4951456;28;20043;-77
2023/05/26 00:49:45;;;;;;;19.92;3.22;;;;;;;9.60;100.00;102539.13;4958156;28;20042;-76
2023/05/26 00:52:11;;;;;;;26.17;3.65;;;;;;;9.67;100.00;102548.78;4972512;28;20065;-76
2023/05/26 00:54:39;;;;;;;15.88;2.85;;;;;;;9.60;100.00;102550.94;4970264;28;20035;-77
2023/05/26 00:57:06;;;;;;;30.60;3.63;;;;;;;9.52;100.00;102544.94;4950781;28;20109;-77
2023/05/26 00:59:32;;;;;;;24.23;3.58;;;;;;;9.53;100.00;102555.81;4939786;28;20443;-77
2023/05/26 01:01:58;;;;;;;27.85;4.90;;;;;;;9.48;100.00;102554.28;4961454;28;20064;-76
2023/05/26 01:04:24;;;;;;;22.55;4.32;;;;;;;9.46;100.00;102557.06;4956243;28;20058;-77
2023/05/26 01:06:50;;;;;;;26.00;4.75;;;;;;;9.41;100.00;102552.75;4970262;28;20069;-75
2023/05/26 01:09:16;;;;;;;19.98;3.28;;;;;;;9.37;100.00;102554.75;4939004;28;20363;-77
2023/05/26 01:12:08;;;;;;;37.45;3.72;;;;;;;9.23;100.00;102525.34;4950607;28;20106;-75
2023/05/26 01:14:44;;;;;;;21.40;3.97;;;;;;;9.31;100.00;102547.75;4956321;28;20578;-75
2023/05/26 01:17:22;;;;;;;21.75;3.53;;;;;;;9.29;100.00;102549.63;4954813;28;20027;-76
2023/05/26 01:20:07;;;;;;;30.88;4.10;;;;;;;9.30;100.00;102559.63;4973504;28;20035;-77
2023/05/26 01:22:51;;;;;;;20.60;3.30;;;;;;;9.25;100.00;102561.69;4973143;28;20047;-79
2023/05/26 01:25:40;;;;;;;23.33;3.65;;;;;;;9.21;100.00;102565.50;4972781;28;20045;-77
2023/05/26 01:28:20;;;;;;;27.05;4.22;;;;;;;9.16;100.00;102567.56;4954229;28;20046;-76
2023/05/26 01:30:48;;;;;;;32.50;4.43;;;;;;;9.15;100.00;102566.69;4975006;28;20092;-76
2023/05/26 01:33:13;;;;;;;22.33;3.65;;;;;;;9.09;100.00;102561.50;4957559;28;20043;-76
2023/05/26 01:35:39;;;;;;;21.77;3.97;;;;;;;9.02;100.00;102551.81;4925122;28;20037;-75
2023/05/26 01:38:05;;;;;;;28.77;4.13;;;;;;;9.06;100.00;102560.75;4955828;28;20113;-76
2023/05/26 01:40:32;;;;;;;21.73;3.65;;;;;;;8.97;100.00;102554.75;4950577;28;20471;-77
2023/05/26 01:43:05;;;;;;;28.10;3.22;;;;;;;8.99;100.00;102558.28;4971905;28;20035;-75
2023/05/26 01:45:40;;;;;;;26.67;3.47;;;;;;;8.95;100.00;102564.88;4969909;28;20039;-75
2023/05/26 01:48:08;;;;;;;29.30;3.97;;;;;;;8.94;100.00;102563.06;4956397;28;20041;-75
2023/05/26 01:51:01;;;;;;;22.70;3.97;;;;;;;8.88;100.00;102560.59;4972037;28;20059;-75
2023/05/26 01:53:32;;;;;;;32.92;4.15;;;;;;;8.87;100.00;102558.84;4976568;28;20051;-76
2023/05/26 01:56:00;;;;;;;33.50;4.53;;;;;;;8.84;100.00;102559.00;4977558;28;20047;-76
2023/05/26 01:58:26;;;;;;;30.30;3.78;;;;;;;8.82;100.00;102555.41;4944265;28;20121;-76
2023/05/26 02:00:52;;;;;;;31.40;4.55;;;;;;;8.74;100.00;102568.53;4943483;28;20548;-77
2023/05/26 02:03:18;;;;;;;29.42;4.03;;;;;;;8.72;100.00;102574.03;4958384;28;20031;-76
2023/05/26 02:05:44;;;;;;;23.45;4.22;;;;;;;8.78;100.00;102568.31;4976325;28;20165;-76
2023/05/26 02:08:10;;;;;;;29.10;4.05;;;;;;;8.65;100.00;102570.69;4971897;28;20027;-76
2023/05/26 02:10:36;;;;;;;28.33;4.30;;;;;;;8.63;100.00;102556.22;4957687;28;20041;-77
2023/05/26 02:13:02;;;;;;;35.17;4.45;;;;;;;8.72;100.00;102563.13;4958745;28;20375;-76
2023/05/26 02:15:27;;;;;;;33.15;3.85;;;;;;;8.60;100.00;102552.75;4941403;28;20038;-76
2023/05/26 02:17:54;;;;;;;21.00;3.97;;;;;;;8.61;100.00;102563.59;4940859;28;20034;-76
2023/05/26 02:20:20;;;;;;;20.63;3.50;;;;;;;8.55;100.00;102566.59;4957256;28;20035;-76
2023/05/26 02:22:46;;;;;;;23.63;3.53;;;;;;;8.53;100.00;102559.44;4969203;28;20054;-76
2023/05/26 02:25:11;;;;;;;29.85;3.97;;;;;;;8.62;100.00;102573.59;4958276;28;20497;-76
2023/05/26 02:27:37;;;;;;;32.28;3.55;;;;;;;8.53;100.00;102557.59;4951303;28;20035;-76
2023/05/26 02:30:03;;;;;;;27.77;3.95;;;;;;;8.48;100.00;102565.09;4958336;28;20039;-76
2023/05/26 02:32:29;;;;;;;21.13;3.60;;;;;;;8.52;100.00;102568.56;4958875;28;20050;-75
2023/05/26 02:34:54;;;;;;;24.02;3.58;;;;;;;8.50;100.00;102568.63;4940370;28;20097;-76
2023/05/26 02:37:20;;;;;;;20.25;3.63;;;;;;;8.37;100.00;102565.50;4956318;28;20042;-77
2023/05/26 02:39:45;;;;;;;28.30;3.90;;;;;;;8.37;100.00;102565.50;4955327;28;20092;-78
2023/05/26 02:42:11;;;;;;;30.85;5.18;;;;;;;8.34;100.00;102571.09;4956417;28;20023;-76
2023/05/26 02:44:36;;;;;;;25.38;3.42;;;;;;;8.36;100.00;102571.94;4974616;28;20037;-75
2023/05/26 02:47:02;;;;;;;20.40;3.40;;;;;;;8.26;100.00;102563.25;4971221;28;20031;-76
2023/05/26 02:49:27;;;;;;;24.08;3.42;;;;;;;8.32;100.00;102569.41;4955321;28;20097;-78
2023/05/26 02:51:53;;;;;;;26.20;4.68;;;;;;;8.28;100.00;102569.53;4952463;28;20391;-76
2023/05/26 02:54:18;;;;;;;25.52;4.30;;;;;;;8.26;100.00;102570.53;4925310;28;20090;-76
2023/05/26 02:56:44;;;;;;;21.27;3.33;;;;;;;8.25;100.00;102577.84;4973307;28;20045;-76
2023/05/26 02:59:09;;;;;;;21.27;3.45;;;;;;;8.22;100.00;102567.03;4952343;28;20049;-78
2023/05/26 03:01:38;;;;;;;23.92;4.07;;;;;;;8.16;100.00;102582.78;4957936;28;20041;-76
2023/05/26 03:04:03;;;;;;;18.98;3.85;;;;;;;8.16;100.00;102580.94;4955843;28;20043;-76
2023/05/26 03:06:29;;;;;;;28.58;4.57;;;;;;;8.09;100.00;102568.50;4941817;28;20066;-77
2023/05/26 03:08:54;;;;;;;18.15;4.13;;;;;;;8.12;100.00;102579.28;4944093;28;20039;-77
2023/05/26 03:11:21;;;;;;;21.88;3.58;;;;;;;8.04;100.00;102582.31;4973743;28;20490;-76
2023/05/26 03:13:47;;;;;;;28.40;3.92;;;;;;;7.98;100.00;102584.41;4954519;28;20046;-76
2023/05/26 03:16:14;;;;;;;20.85;3.13;;;;;;;8.06;100.00;102583.13;4968629;28;20039;-78
2023/05/26 03:18:39;;;;;;;28.48;3.78;;;;;;;7.80;100.00;102570.56;4953453;28;20477;-76
2023/05/26 03:21:06;;;;;;;24.50;3.50;;;;;;;7.86;100.00;102574.91;4952345;28;20122;-77
2023/05/26 03:23:32;;;;;;;32.60;3.90;;;;;;;7.91;100.00;102586.50;4941688;28;20038;-75
2023/05/26 03:25:58;;;;;;;28.58;3.85;;;;;;;7.72;100.00;102581.78;4950514;28;20035;-76
2023/05/26 03:28:23;;;;;;;23.30;3.97;;;;;;;7.79;100.00;102576.97;4955616;28;20041;-77
2023/05/26 03:30:49;;;;;;;30.48;4.03;;;;;;;7.82;100.00;102586.84;4956200;28;20109;-77
2023/05/26 03:33:14;;;;;;;31.23;4.25;;;;;;;7.73;100.00;102585.38;4967645;28;20079;-76
2023/05/26 03:35:40;;;;;;;26.38;4.13;;;;;;;7.76;100.00;102592.56;4938510;28;20054;-76
2023/05/26 03:38:05;;;;;;;38.05;4.57;;;;;;;7.75;100.00;102588.94;4953979;28;20454;-76
2023/05/26 03:40:31;;;;;;;24.73;4.53;;;;;;;7.71;100.00;102587.28;4937418;28;20443;-75
2023/05/26 03:42:56;;;;;;;26.77;3.47;;;;;;;7.76;100.00;102601.63;4958452;28;20039;-75
2023/05/26 03:45:22;;;;;;;24.65;3.55;;;;;;;7.76;100.00;102595.31;4954142;28;20183;-75
2023/05/26 03:47:48;;;;;;;24.67;3.55;;;;;;;7.67;100.00;102593.81;4951140;29;20098;-75
2023/05/26 03:50:14;;;;;;;25.38;3.88;;;;;;;7.70;100.00;102597.28;4945099;28;20078;-75
2023/05/26 03:52:40;;;;;;;26.27;4.15;;;;;;;7.63;100.00;102605.78;4921445;28;20067;-75
2023/05/26 03:55:10;;;;;;;26.35;4.05;;;;;;;7.62;100.00;102599.44;4956846;28;20043;-75
2023/05/26 03:57:39;;;;;;;22.52;4.07;;;;;;;7.59;100.00;102598.66;4957377;28;20038;-76
2023/05/26 04:00:10;;;;;;;23.65;3.35;;;;;;;7.65;100.00;102606.63;4967711;28;20031;-76
2023/05/26 04:02:35;;;;;;;27.00;3.97;;;;;;;7.71;100.00;102603.66;4956731;28;20501;-77
2023/05/26 04:05:02;;;;;;;28.30;3.95;;;;;;;7.54;100.00;102569.75;4956936;28;20031;-75
2023/05/26 04:07:28;;;;;;;34.80;4.03;;;;;;;7.76;100.00;102611.66;4956096;28;20038;-76
2023/05/26 04:09:53;;;;;;;24.02;3.83;;;;;;;7.72;100.00;102608.13;4956023;28;20433;-76
2023/05/26 04:12:19;;;;;;;31.33;4.15;;;;;;;7.75;100.00;102610.75;4971976;28;20042;-77
2023/05/26 04:14:44;;;;;;;32.13;4.18;;;;;;;7.78;100.00;102613.38;4956295;28;20074;-76
2023/05/26 04:17:10;;;;;;;26.55;4.32;;;;;;;7.71;100.00;102606.38;4938404;28;20042;-76
2023/05/26 04:19:35;;;;;;;22.73;3.78;;;;;;;7.78;100.00;102618.81;4967927;28;20027;-76
2023/05/26 04:22:01;;;;;;;26.05;3.45;;;;;;;7.73;100.00;102607.22;4955679;28;20509;-76
2023/05/26 04:24:27;;;;;;;29.52;3.58;;;;;;;7.75;100.00;102608.03;4955014;28;20042;-76
2023/05/26 04:26:54;;;;;;;25.90;4.55;;;;;;;7.81;100.00;102607.78;4957583;28;20071;-76
2023/05/26 04:29:20;;;;;;;26.13;4.13;;;;;;;7.85;100.00;102611.28;4932227;28;20039;-77
2023/05/26 04:31:46;;;;;;;24.45;3.70;;;;;;;7.90;100.00;102598.34;4954867;28;20162;-77
2023/05/26 04:34:11;;;;;;;30.27;4.32;;;;;;;7.91;100.00;102602.88;4936769;28;20074;-77
2023/05/26 04:36:40;;;;;;;25.73;3.55;;;;;;;8.01;100.00;102622.47;4940880;28;20120;-77
2023/05/26 04:39:06;;;;;;;23.60;4.53;;;;;;;7.99;100.00;102611.63;4939881;28;20031;-77
2023/05/26 04:41:32;;;;;;;34.15;4.57;;;;;;;8.00;100.00;102612.50;4958298;28;20115;-80
2023/05/26 04:43:59;;;;;;;26.30;4.50;;;;;;;8.11;100.00;102623.88;4948579;28;20038;-77
2023/05/26 04:46:25;;;;;;;33.65;4.35;;;;;;;8.03;100.00;102613.28;4940915;28;20043;-77
2023/05/26 04:48:52;;;;;;;20.20;3.20;;;;;;;8.11;100.00;102612.97;4925408;28;20042;-76
2023/05/26 04:51:18;;;;;;;23.80;3.70;;;;;;;8.18;100.00;102617.25;4917776;29;20469;-77
2023/05/26 04:53:43;;;;;;;25.77;4.38;;;;;;;8.23;100.00;102615.22;4916952;29;20118;-76
2023/05/26 04:56:10;;;;;;;25.00;4.30;;;;;;;8.28;100.00;102624.09;4950790;28;20038;-76
2023/05/26 04:58:36;;;;;;;25.65;4.57;;;;;;;8.36;100.00;102614.69;4947183;29;20035;-76
2023/05/26 05:01:02;;;;;;;29.30;4.80;;;;;;;8.41;100.00;102626.31;4937033;29;20039;-76
2023/05/26 05:03:29;;;;;;;22.70;4.00;;;;;;;8.41;100.00;102618.13;4948590;28;20069;-76
2023/05/26 05:05:54;;;;;;;27.30;4.43;;;;;;;8.53;100.00;102614.03;4949687;29;20051;-76
2023/05/26 05:08:20;;;;;;;28.65;4.07;;;;;;;8.62;100.00;102616.38;4931499;29;20102;-76
2023/05/26 05:10:45;;;;;;;23.17;3.95;;;;;;;8.61;100.00;102623.69;4953300;29;20039;-79
2023/05/26 05:13:11;;;;;;;21.02;3.78;;;;;;;8.71;100.00;102624.19;4954158;29;20046;-76
2023/05/26 05:15:36;;;;;;;20.05;3.50;;;;;;;8.70;100.00;102622.38;4964238;28;20112;-77
2023/05/26 05:18:02;;;;;;;37.80;4.80;;;;;;;8.96;100.00;102642.22;4967775;28;20043;-77
2023/05/26 05:20:28;;;;;;;28.20;3.75;;;;;;;9.02;100.00;102636.50;4953108;29;20043;-76
2023/05/26 05:22:54;;;;;;;18.50;3.20;;;;;;;9.08;100.00;102628.00;4935064;28;20090;-76
2023/05/26 05:25:20;;;;;;;22.88;3.53;;;;;;;9.31;100.00;102639.78;4951603;29;20498;-76
2023/05/26 05:27:46;;;;;;;32.05;4.15;;;;;;;9.31;100.00;102637.94;4939162;29;20035;-79
2023/05/26 05:30:12;;;;;;;21.75;3.60;;;;;;;9.60;100.00;102623.91;4944205;28;20051;-77
2023/05/26 05:32:38;;;;;;;24.95;4.15;;;;;;;9.88;100.00;102642.63;4956631;29;20126;-77
2023/05/26 05:35:04;;;;;;;33.78;4.50;;;;;;;10.02;100.00;102648.34;4939546;28;20130;-76
2023/05/26 05:37:30;;;;;;;26.65;3.92;;;;;;;10.15;100.00;102637.69;4954721;28;20578;-75
2023/05/26 05:39:55;;;;;;;22.77;3.67;;;;;;;10.37;100.00;102637.53;4954856;28;20122;-76
2023/05/26 05:42:24;;;;;;;32.55;4.63;;;;;;;10.57;100.00;102643.88;4955629;28;20042;-76
2023/05/26 05:44:53;;;;;;;27.48;3.78;;;;;;;10.61;100.00;102640.03;4957240;28;20066;-76
2023/05/26 05:47:18;;;;;;;25.83;3.92;;;;;;;10.81;100.00;102639.00;4956790;29;20038;-77
2023/05/26 05:49:44;;;;;;;24.15;4.10;;;;;;;11.12;100.00;102641.03;4956492;28;20478;-76
2023/05/26 05:52:09;;;;;;;28.75;4.10;;;;;;;11.08;100.00;102628.44;4971791;28;20064;-77
2023/05/26 05:54:37;;;;;;;20.48;3.67;;;;;;;11.58;100.00;102648.66;4962899;28;20041;-76
2023/05/26 05:57:03;;;;;;;21.50;3.80;;;;;;;11.65;100.00;102652.81;4921800;28;20039;-78
2023/05/26 05:59:28;;;;;;;21.60;4.03;;;;;;;11.74;100.00;102651.41;4937132;29;20042;-77
2023/05/26 06:01:54;;;;;;;17.90;3.10;;;;;;;12.34;100.00;102658.19;4959776;28;20031;-77
2023/05/26 06:04:19;;;;;;;20.30;3.65;;;;;;;12.21;100.00;102656.13;4939623;28;20122;-78
2023/05/26 06:06:45;;;;;;;24.67;4.05;;;;;;;12.26;100.00;102654.00;4955201;28;20482;-77
2023/05/26 06:09:11;;;;;;;26.90;4.53;;;;;;;12.67;100.00;102660.81;4953722;28;20089;-77
2023/05/26 06:11:37;;;;;;;20.88;3.95;;;;;;;13.31;100.00;102675.28;4942936;28;20058;-77
2023/05/26 06:14:02;;;;;;;26.90;4.00;;;;;;;12.87;100.00;102670.63;4940440;28;20070;-76
2023/05/26 06:16:28;;;;;;;22.02;3.08;;;;;;;13.13;100.00;102677.31;4956039;28;20034;-76
2023/05/26 06:18:53;;;;;;;21.05;3.90;;;;;;;12.61;100.00;102685.91;4955340;28;20118;-77
2023/05/26 06:21:18;;;;;;;26.55;3.80;;;;;;;13.02;100.00;102652.34;4938383;28;20045;-76
2023/05/26 06:23:44;;;;;;;18.52;3.72;;;;;;;13.07;100.00;102683.22;4956759;28;20900;-75
2023/05/26 06:26:09;;;;;;;22.63;3.45;;;;;;;13.04;100.00;102669.63;4958274;28;20483;-77
2023/05/26 06:28:35;;;;;;;21.35;3.00;;;;;;;13.39;100.00;102681.25;4911397;28;20082;-75
2023/05/26 06:31:00;;;;;;;26.15;3.47;;;;;;;13.03;100.00;102668.72;4926667;28;20421;-75
2023/05/26 06:33:26;;;;;;;27.25;4.28;;;;;;;13.11;100.00;102678.41;4951831;28;20035;-76
2023/05/26 06:35:52;;;;;;;29.80;4.63;;;;;;;13.62;100.00;102673.44;4958602;28;20110;-75
2023/05/26 06:38:17;;;;;;;21.30;3.92;;;;;;;13.73;100.00;102679.16;4962407;28;20475;-76
2023/05/26 06:40:42;;;;;;;24.08;4.18;;;;;;;14.42;100.00;102690.31;4938860;28;20042;-76
2023/05/26 06:43:08;;;;;;;18.42;3.50;;;;;;;14.10;100.00;102686.91;4952247;28;20486;-75
2023/05/26 06:45:33;;;;;;;18.23;3.35;;;;;;;14.33;100.00;102680.81;4947706;28;20425;-75
2023/05/26 06:48:02;;;;;;;21.23;4.00;;;;;;;14.11;100.00;102684.06;4959419;28;20501;-74
2023/05/26 06:50:27;;;;;;;21.33;4.13;;;;;;;14.87;100.00;102680.00;4955261;28;20113;-75
2023/05/26 06:52:53;;;;;;;22.98;3.60;;;;;;;15.00;100.00;102676.38;4958094;28;20043;-76
2023/05/26 06:55:19;;;;;;;27.02;5.03;;;;;;;15.22;98.36;102696.00;4942100;28;20075;-75
2023/05/26 06:57:45;;;;;;;29.35;3.55;;;;;;;15.41;97.10;102687.31;4959397;28;20112;-75
2023/05/26 07:00:11;;;;;;;23.20;3.75;;;;;;;15.27;94.92;102689.28;4966929;28;20474;-75
2023/05/26 07:02:36;;;;;;;19.90;3.88;;;;;;;14.74;97.14;102690.09;4972578;28;20406;-77
2023/05/26 07:05:03;;;;;;;24.80;3.72;;;;;;;15.01;98.43;102698.34;4975578;28;20059;-75
2023/05/26 07:07:28;;;;;;;22.77;3.53;;;;;;;14.92;94.76;102687.06;4942201;28;20430;-76
2023/05/26 07:09:55;;;;;;;22.67;4.45;;;;;;;15.15;93.36;102682.72;4955130;28;20089;-75
2023/05/26 07:12:21;;;;;;;24.48;3.80;;;;;;;15.04;95.07;102680.72;4941192;28;21332;-74
2023/05/26 07:14:46;;;;;;;18.88;3.33;;;;;;;14.94;96.24;102677.69;4957751;28;20038;-74
2023/05/26 07:17:12;;;;;;;21.35;4.00;;;;;;;15.58;88.62;102683.34;4954886;28;20042;-74
2023/05/26 07:19:38;;;;;;;20.15;4.40;;;;;;;16.17;85.86;102693.00;4956637;28;20549;-76
2023/05/26 07:22:04;;;;;;;21.73;4.25;;;;;;;15.96;87.80;102690.78;4974596;28;20085;-75
2023/05/26 07:24:29;;;;;;;22.33;3.97;;;;;;;16.03;84.85;102693.97;4973700;28;20039;-74
2023/05/26 07:26:55;;;;;;;23.42;4.13;;;;;;;16.08;84.70;102699.19;4940731;28;20405;-74
2023/05/26 07:29:20;;;;;;;22.98;3.58;;;;;;;16.14;79.66;102701.50;4974186;28;20039;-74
2023/05/26 07:31:46;;;;;;;20.92;4.63;;;;;;;16.16;86.22;102697.63;4950970;28;20039;-74
2023/05/26 07:34:11;;;;;;;19.67;3.47;;;;;;;16.84;78.77;102691.66;4973357;28;20066;-75
2023/05/26 07:36:37;;;;;;;23.02;4.20;;;;;;;16.77;78.38;102691.25;4971191;28;20038;-74
2023/05/26 07:39:02;;;;;;;23.98;5.68;;;;;;;16.90;77.21;102692.16;4931923;28;20051;-74
2023/05/26 07:41:28;;;;;;;21.15;3.67;;;;;;;16.40;79.27;102691.28;4956534;28;20043;-74
2023/05/26 07:43:53;;;;;;;20.02;3.60;;;;;;;17.09;76.72;102687.94;4943048;28;20031;-74
2023/05/26 07:46:19;;;;;;;21.30;3.70;;;;;;;16.79;78.46;102689.28;4956723;28;20107;-75
2023/05/26 07:48:44;;;;;;;18.50;3.95;;;;;;;16.76;77.18;102692.28;4957304;28;20077;-74
2023/05/26 07:51:09;;;;;;;20.13;3.67;;;;;;;16.12;78.99;102701.63;4970187;28;20121;-74
2023/05/26 07:53:38;;;;;;;27.63;4.07;;;;;;;16.79;77.75;102688.38;4957504;28;20130;-74
2023/05/26 07:56:03;;;;;;;25.00;4.25;;;;;;;16.85;78.38;102696.25;4941409;28;20038;-74
2023/05/26 07:58:29;;;;;;;21.88;3.90;;;;;;;17.34;74.76;102694.34;4929721;28;20397;-75
2023/05/26 08:00:54;;;;;;;24.80;3.60;;;;;;;17.19;75.49;102694.53;4940781;28;20037;-75
2023/05/26 08:03:20;;;;;;;24.95;3.47;;;;;;;17.81;73.79;102696.06;4941420;28;20031;-76
2023/05/26 08:05:45;;;;;;;37.30;5.43;;;;;;;17.15;72.19;102690.25;4956134;28;20066;-75
2023/05/26 08:08:11;;;;;;;40.00;4.15;;;;;;;17.94;72.98;102697.91;4956572;28;20069;-75
2023/05/26 08:10:36;;;;;;;25.35;3.78;;;;;;;16.98;72.99;102699.84;4938920;28;20074;-75
2023/05/26 08:13:02;;;;;;;18.48;3.47;;;;;;;17.27;72.30;102699.47;4956096;28;20130;-75
2023/05/26 08:15:27;;;;;;;17.38;3.47;;;;;;;17.83;71.94;102695.97;4967840;28;20134;-75
2023/05/26 08:17:53;;;;;;;20.10;3.67;;;;;;;17.94;68.62;102697.91;4954485;28;20117;-76
2023/05/26 08:20:19;;;;;;;24.48;4.72;;;;;;;17.14;72.76;102699.53;4939631;28;20102;-76
2023/05/26 08:22:45;;;;;;;22.85;4.75;;;;;;;18.48;66.69;102693.47;4940452;28;20062;-75
2023/05/26 08:25:12;;;;;;;15.90;4.38;;;;;;;18.54;70.34;102692.94;4972538;28;20125;-76
2023/05/26 08:27:38;;;;;;;21.88;3.47;;;;;;;17.86;69.52;102681.84;4956491;28;20031;-75
2023/05/26 08:30:04;;;;;;;24.27;3.45;;;;;;;18.46;69.03;102696.38;4944790;28;20046;-75
2023/05/26 08:32:30;;;;;;;16.00;3.42;;;;;;;19.43;63.15;102696.47;4956090;28;20057;-75
2023/05/26 08:34:55;;;;;;;19.60;4.00;;;;;;;18.86;63.78;102687.50;4956119;28;20557;-75
2023/05/26 08:37:21;;;;;;;20.10;3.85;;;;;;;19.00;64.70;102693.75;4947697;29;20038;-74
2023/05/26 08:39:46;;;;;;;16.98;3.25;;;;;;;19.16;63.52;102691.41;4949406;28;20065;-75
2023/05/26 08:42:15;;;;;;;23.25;4.05;;;;;;;18.50;65.78;102694.22;4955172;28;20063;-79
2023/05/26 08:44:42;;;;;;;15.80;3.30;;;;;;;19.27;62.81;102694.16;4934973;28;20102;-76
2023/05/26 08:47:11;;;;;;;17.08;3.65;;;;;;;19.13;62.25;102685.25;4957160;28;20482;-75
2023/05/26 08:49:41;;;;;;;25.63;3.95;;;;;;;18.69;62.92;102693.53;4952176;28;20035;-76
2023/05/26 08:52:13;;;;;;;17.33;2.92;;;;;;;18.56;62.74;102685.38;4965262;28;20038;-75
2023/05/26 08:54:41;;;;;;;17.42;3.75;;;;;;;18.88;64.70;102677.13;4953248;28;20395;-76
2023/05/26 08:57:08;;;;;;;18.35;3.28;;;;;;;19.09;62.30;102685.50;4955964;28;20027;-75
2023/05/26 08:59:36;;;;;;;19.40;3.92;;;;;;;19.18;63.05;102683.81;4962365;28;20427;-76
2023/05/26 09:02:02;;;;;;;20.25;4.03;;;;;;;19.56;61.59;102682.38;4947223;28;20045;-75
2023/05/26 09:04:29;;;;;;;23.05;4.18;;;;;;;19.19;60.26;102688.38;4971198;28;20058;-75
2023/05/26 09:06:55;;;;;;;19.48;3.90;;;;;;;19.35;58.16;102684.25;4937673;28;20482;-75
2023/05/26 09:09:20;;;;;;;19.05;4.05;;;;;;;19.11;62.64;102679.81;4943130;28;20034;-74
2023/05/26 09:11:46;;;;;;;14.88;3.70;;;;;;;19.09;60.54;102687.41;4907967;28;20134;-75
2023/05/26 09:14:13;;;;;;;21.05;3.67;;;;;;;19.17;58.35;102690.41;4951726;28;20042;-75
2023/05/26 09:16:39;;;;;;;18.42;3.05;;;;;;;18.61;61.34;102690.53;4940247;28;20089;-75
2023/05/26 09:19:04;;;;;;;20.73;3.53;;;;;;;19.75;58.00;102689.97;4954504;28;20027;-75
2023/05/26 09:21:31;;;;;;;18.33;3.35;;;;;;;19.43;54.89;102695.56;4939731;28;20050;-74
2023/05/26 09:23:59;;;;;;;17.58;3.35;;;;;;;18.77;57.14;102691.00;4967564;28;20475;-75
2023/05/26 09:26:26;;;;;;;21.23;4.07;;;;;;;18.65;59.47;102690.16;4920211;28;20039;-75
2023/05/26 09:28:52;;;;;;;21.13;3.72;;;;;;;19.61;56.53;102693.06;4961688;28;20039;-75
2023/05/26 09:31:18;;;;;;;17.65;3.25;;;;;;;18.79;58.40;102688.09;4931596;28;20094;-78
2023/05/26 09:33:46;;;;;;;13.13;3.42;;;;;;;19.44;55.79;102689.00;4931417;28;20033;-75
2023/05/26 09:36:11;;;;;;;16.35;3.17;;;;;;;18.90;56.21;102691.75;4936682;28;20027;-75
2023/05/26 09:38:37;;;;;;;20.35;3.42;;;;;;;19.38;56.77;102696.00;4969766;28;20034;-75
2023/05/26 09:41:02;;;;;;;14.27;2.97;;;;;;;19.47;51.50;102706.28;4953966;28;20049;-75
2023/05/26 09:43:33;;;;;;;20.00;3.78;;;;;;;19.27;52.81;102701.59;4953585;28;20042;-75
2023/05/26 09:45:58;;;;;;;17.80;3.33;;;;;;;19.17;52.62;102703.41;4948108;28;20038;-75
2023/05/26 09:48:24;;;;;;;17.38;3.03;;;;;;;19.34;53.75;102701.94;4936612;29;20062;-73
2023/05/26 09:50:51;;;;;;;17.95;3.53;;;;;;;19.72;53.08;102703.25;4967336;28;20059;-75
2023/05/26 09:53:16;;;;;;;14.98;3.60;;;;;;;19.86;51.71;102690.91;4969218;28;20089;-75
2023/05/26 09:55:46;;;;;;;13.75;3.00;;;;;;;19.69;53.37;102687.72;4954909;28;20034;-75
2023/05/26 09:58:12;;;;;;;17.45;3.22;;;;;;;19.29;52.58;102697.66;4970962;28;20043;-75
2023/05/26 10:00:42;;;;;;;13.80;3.10;;;;;;;;;;4952088;28;20031;-74
2023/05/26 10:03:08;;;;;;;14.85;4.05;;;;;;;19.76;53.33;102694.53;4968775;28;20039;-74
2023/05/26 10:05:47;;;;;;;17.55;3.38;;;;;;;20.02;52.83;102683.84;4950487;28;20126;-75
2023/05/26 10:08:18;;;;;;;18.17;3.20;;;;;;;19.46;53.37;102687.88;4957763;28;20027;-75
2023/05/26 10:10:46;;;;;;;18.83;4.38;;;;;;;19.78;54.76;102674.94;4947720;29;20047;-74
2023/05/26 10:13:12;;;;;;;18.13;3.05;;;;;;;20.04;55.46;102677.25;4952976;28;20470;-74
2023/05/26 10:15:38;;;;;;;16.88;3.63;;;;;;;20.39;54.68;102676.81;4926660;28;20119;-74
2023/05/26 10:18:03;;;;;;;15.55;3.42;;;;;;;20.66;52.47;102673.41;4940829;28;20039;-75
2023/05/26 10:20:30;;;;;;;12.48;2.97;;;;;;;19.77;50.40;102671.25;4958187;28;20030;-75
2023/05/26 10:23:14;;;;;;;23.50;3.67;;;;;;;19.74;49.72;102678.97;4956338;28;20379;-74
2023/05/26 10:25:54;;;;;;;17.80;3.28;;;;;;;19.86;50.15;102669.56;4965121;28;20485;-76
2023/05/26 10:28:30;;;;;;;19.63;3.33;;;;;;;19.29;52.10;102669.88;4954167;28;20061;-75
2023/05/26 10:31:00;;;;;;;20.60;3.78;;;;;;;19.57;53.17;102678.56;4946217;28;20498;-74
2023/05/26 10:33:44;;;;;;;19.80;3.70;;;;;;;20.56;50.50;102680.81;4925177;28;20066;-74
2023/05/26 10:36:15;;;;;;;14.80;3.40;;;;;;;19.79;52.12;102662.78;4958534;28;20049;-74
2023/05/26 10:38:50;;;;;;;17.88;3.78;;;;;;;20.30;53.27;102660.97;4939222;28;20089;-74
2023/05/26 10:41:33;;;;;;;19.25;2.92;;;;;;;20.59;48.62;102661.03;4967054;28;20045;-75
2023/05/26 10:44:00;;;;;;;16.17;3.60;;;;;;;20.82;50.86;102655.25;4941035;29;20062;-75
2023/05/26 10:46:45;;;;;;;19.48;3.53;;;;;;;20.53;49.90;102668.06;4952489;28;20482;-75
2023/05/26 10:49:22;;;;;;;19.65;3.60;;;;;;;19.90;50.91;102667.38;4954782;28;20545;-74
2023/05/26 10:51:54;;;;;;;20.15;3.83;;;;;;;20.32;49.69;102670.94;4968079;28;20205;-74
2023/05/26 10:54:24;;;;;;;17.77;4.18;;;;;;;20.43;49.90;102666.28;4945276;28;20121;-76
2023/05/26 10:56:54;;;;;;;14.52;3.58;;;;;;;20.57;48.18;102663.97;4970443;28;20045;-74
2023/05/26 10:59:33;;;;;;;12.30;2.97;;;;;;;20.41;49.55;102666.41;4941959;28;20498;-74
2023/05/26 11:02:03;;;;;;;11.15;3.08;;;;;;;20.18;49.63;102661.09;4951658;29;20496;-75
2023/05/26 11:04:46;;;;;;;16.38;3.75;;;;;;;20.58;48.73;102662.09;4953858;28;20035;-76
2023/05/26 11:07:29;;;;;;;14.02;3.13;;;;;;;20.32;49.42;102665.38;4939085;28;20538;-77
2023/05/26 11:09:56;;;;;;;;;;;;;;;20.16;48.03;102657.56;4954609;28;20039;-74
2023/05/26 11:12:22;;;;;;;16.63;3.25;;;;;;;20.41;46.99;102671.97;4938580;28;20365;-76
2023/05/26 11:14:48;;;;;;;13.45;3.00;;;;;;;20.27;49.58;102656.56;4949687;29;20085;-75
2023/05/26 11:17:16;;;;;;;12.52;3.28;;;;;;;20.69;48.82;102658.31;4957660;28;20058;-75